Pernille — 5BNZ2 — position and weather

sailwx.info

Track history (hours):
 
Tides and Currents Weather Stations Pressure Air Temp Water Temp Dewpoint Dewpoint Depression Visibility Wind Speed Wind Dir Waves Ship Positions

Pernille

Last reported at 2017-Aug-21 08:29 UTC. Time now 2017-Aug-22 05:10 UTC.
Position N 59°30' E 016°58'.

Length 83 m; draft 5.4 m.

Type: Cargo ship. MMSI: 212662000.

Date/timePositionNaut miles runAvg speedWind from/ knotsBaromVisibWave heightAir tempDewpointWater temp
2017-Aug-21 08:29N 59°30' E 016°58'3 6.4
2017-Aug-21 08:00N 59°32' E 017°03'510.1
2017-Aug-21 07:30N 59°30' E 017°12'5 9.5
2017-Aug-21 07:00N 59°27' E 017°18'5 9.9
2017-Aug-21 06:31N 59°24' E 017°26'510.4
2017-Aug-21 06:00N 59°19' E 017°32'245 9.8
2017-Aug-20 04:57N 55°20' E 019°03'510.4
2017-Aug-20 04:31N 55°16' E 019°07'1310.5
2017-Aug-20 03:18N 55°04' E 019°17'310.6
2017-Aug-20 02:59N 55°01' E 019°20'510.7
2017-Aug-20 02:29N 54°57' E 019°24'510.6
2017-Aug-20 02:00N 54°52' E 019°28'510.6
2017-Aug-20 01:31N 54°48' E 019°33'510.3
2017-Aug-20 01:01N 54°44' E 019°39'510.5
2017-Aug-20 00:30N 54°41' E 019°47'6 0.2
2017-Aug-18 16:57N 54°38' E 019°56'5 4.2
2017-Aug-18 15:53N 54°38' E 019°48'0 0.0
2017-Aug-18 15:29N 54°38' E 019°48'0 0.0
2017-Aug-18 14:59N 54°38' E 019°48'0 0.0
2017-Aug-18 10:48N 54°38' E 019°48'810.0
2017-Aug-18 09:59N 54°44' E 019°38'511.6
2017-Aug-18 09:30N 54°46' E 019°29'611.6
2017-Aug-18 09:00N 54°48' E 019°19'611.6
2017-Aug-18 08:30N 54°49' E 019°10'611.5
2017-Aug-18 08:00N 54°51' E 019°00'611.4
2017-Aug-18 07:30N 54°53' E 018°51'611.2
2017-Aug-18 07:00N 54°55' E 018°42'510.7
2017-Aug-18 06:30N 54°55' E 018°32'611.0
2017-Aug-18 06:00N 54°55' E 018°23'611.3
2017-Aug-18 05:30N 54°55' E 018°13'611.4
2017-Aug-18 05:00N 54°54' E 018°03'10311.4
2017-Aug-17 19:59N 54°39' E 015°07'611.2
2017-Aug-17 19:29N 54°38' E 014°57'511.2
2017-Aug-17 19:00N 54°37' E 014°48'611.1
2017-Aug-17 18:28N 54°37' E 014°38'711.0
2017-Aug-17 17:49N 54°36' E 014°26'410.6
2017-Aug-17 17:29N 54°36' E 014°20'510.7
2017-Aug-17 17:00N 54°38' E 014°11'510.7
2017-Aug-17 16:30N 54°39' E 014°02'510.8
2017-Aug-17 16:00N 54°40' E 013°53'610.8
2017-Aug-17 15:27N 54°42' E 013°43'510.7
2017-Aug-17 15:00N 54°44' E 013°35'510.3
2017-Aug-17 14:30N 54°45' E 013°27'1310.8
2017-Aug-17 13:17N 54°43' E 013°04'310.7
2017-Aug-17 13:00N 54°43' E 012°59'510.8
2017-Aug-17 12:30N 54°42' E 012°50'1410.8
2017-Aug-17 11:15N 54°36' E 012°29'511.0
2017-Aug-17 10:47N 54°33' E 012°22'311.0
2017-Aug-17 10:31N 54°31' E 012°17'611.1
2017-Aug-17 10:00N 54°26' E 012°13'510.2
2017-Aug-17 09:30N 54°24' E 012°05'1111.0
2017-Aug-17 08:32N 54°23' E 011°47'010.9
2017-Aug-17 08:30N 54°24' E 011°46'510.9
2017-Aug-17 08:00N 54°26' E 011°38'510.9
2017-Aug-17 07:30N 54°29' E 011°30'510.8
2017-Aug-17 07:00N 54°31' E 011°22'510.5
2017-Aug-17 06:30N 54°34' E 011°14'510.7
2017-Aug-17 06:00N 54°35' E 011°05'611.5
2017-Aug-17 05:30N 54°34' E 010°55'611.5
2017-Aug-17 05:00N 54°34' E 010°45'611.2
2017-Aug-17 04:30N 54°33' E 010°36'611.2
2017-Aug-17 04:00N 54°31' E 010°27'610.9
2017-Aug-17 03:29N 54°29' E 010°18'611.0
2017-Aug-17 02:57N 54°24' E 010°12'5 3.5
2017-Aug-17 01:30N 54°22' E 010°04'4 7.1
2017-Aug-17 00:57N 54°21' E 009°58'9 7.2
2017-Aug-16 23:45N 54°20' E 009°43'4 7.0
2017-Aug-16 23:15N 54°17' E 009°39'2 5.7
2017-Aug-16 22:56N 54°16' E 009°37'3 6.3
2017-Aug-16 22:29N 54°13' E 009°35'10 8.4
2017-Aug-16 21:17N 54°08' E 009°20'3 8.3
2017-Aug-16 20:59N 54°06' E 009°20'3 7.0
2017-Aug-16 20:30N 54°02' E 009°18'1 1.5
2017-Aug-16 20:00N 54°02' E 009°18'3 6.8
2017-Aug-16 19:30N 53°59' E 009°16'4 8.4
2017-Aug-16 19:00N 53°55' E 009°12'2 4.7
2017-Aug-16 18:30N 53°54' E 009°09'1 1.6
2017-Aug-16 18:00N 53°53' E 009°08'1 1.3
2017-Aug-16 17:30N 53°53' E 009°07'510.0
2017-Aug-16 17:01N 53°51' E 008°59'713.9
2017-Aug-16 16:30N 53°50' E 008°47'713.7
2017-Aug-16 16:00N 53°56' E 008°40'713.3
2017-Aug-16 15:30N 53°58' E 008°29'713.3
2017-Aug-16 14:59N 53°59' E 008°18'11411.1
2017-Aug-16 04:43N 53°30' E 005°11'210.9
2017-Aug-16 04:30N 53°29' E 005°08'611.0
2017-Aug-16 04:00N 53°27' E 004°59'911.0
2017-Aug-16 03:13N 53°25' E 004°45'2 9.9
2017-Aug-16 03:00N 53°25' E 004°41'810.9
2017-Aug-16 02:18N 53°18' E 004°36'1010.4
2017-Aug-16 01:23N 53°19' E 004°20'1812.0
2017-Aug-15 23:52N 53°19' E 003°49'512.1
2017-Aug-15 23:29N 53°20' E 003°42'7711.1
2017-Aug-15 16:30N 53°20' E 001°32'611.0
2017-Aug-15 16:00N 53°21' E 001°23'711.2
2017-Aug-15 15:22N 53°21' E 001°11'  
2017-Aug-12 12:23N 53°33' E 004°57'10810.1
2017-Aug-12 01:40N 54°01' E 007°55'210.2
2017-Aug-12 01:28N 54°01' E 007°58'18 9.4
2017-Aug-11 23:34N 53°59' E 008°28'1 7.7
2017-Aug-11 23:30N 53°59' E 008°29'4 8.2
2017-Aug-11 22:59N 53°58' E 008°36'4 9.2
2017-Aug-11 22:30N 53°55' E 008°41'611.3
2017-Aug-11 22:00N 53°51' E 008°48'613.0
2017-Aug-11 21:31N 53°51' E 008°59'611.8
2017-Aug-11 21:00N 53°53' E 009°08'0 0.9
2017-Aug-11 20:30N 53°54' E 009°09'2 4.1
2017-Aug-11 20:01N 53°55' E 009°11'4 8.5
2017-Aug-11 19:31N 53°58' E 009°16'4 8.4
2017-Aug-11 19:00N 54°02' E 009°18'52 6.5
2017-Aug-11 11:06N 54°33' E 010°29'210.7
2017-Aug-11 10:57N 54°34' E 010°32'510.5
2017-Aug-11 10:30N 54°34' E 010°40'510.9
2017-Aug-11 10:00N 54°35' E 010°49'611.3
2017-Aug-11 09:30N 54°36' E 010°59'611.2
2017-Aug-11 09:00N 54°36' E 011°08'611.4
2017-Aug-11 08:30N 54°34' E 011°18'  
Track history (hours):
 
Tides and Currents Weather Stations Pressure Air Temp Water Temp Dewpoint Dewpoint Depression Visibility Wind Speed Wind Dir Waves Ship Positions

Pernille

Last reported at 2017-Aug-21 08:29 UTC. Time now 2017-Aug-22 05:10 UTC.
Position N 59°30' E 016°58'.

Length 83 m; draft 5.4 m.

Type: Cargo ship. MMSI: 212662000.

Date/timePositionNaut miles runAvg speedWind from/ knotsBaromVisibWave heightAir tempDewpointWater temp
2017-Aug-21 08:29N 59°30' E 016°58'3 6.4
2017-Aug-21 08:00N 59°32' E 017°03'510.1
2017-Aug-21 07:30N 59°30' E 017°12'5 9.5
2017-Aug-21 07:00N 59°27' E 017°18'5 9.9
2017-Aug-21 06:31N 59°24' E 017°26'510.4
2017-Aug-21 06:00N 59°19' E 017°32'245 9.8
2017-Aug-20 04:57N 55°20' E 019°03'510.4
2017-Aug-20 04:31N 55°16' E 019°07'1310.5
2017-Aug-20 03:18N 55°04' E 019°17'310.6
2017-Aug-20 02:59N 55°01' E 019°20'510.7
2017-Aug-20 02:29N 54°57' E 019°24'510.6
2017-Aug-20 02:00N 54°52' E 019°28'510.6
2017-Aug-20 01:31N 54°48' E 019°33'510.3
2017-Aug-20 01:01N 54°44' E 019°39'510.5
2017-Aug-20 00:30N 54°41' E 019°47'6 0.2
2017-Aug-18 16:57N 54°38' E 019°56'5 4.2
2017-Aug-18 15:53N 54°38' E 019°48'0 0.0
2017-Aug-18 15:29N 54°38' E 019°48'0 0.0
2017-Aug-18 14:59N 54°38' E 019°48'0 0.0
2017-Aug-18 10:48N 54°38' E 019°48'810.0
2017-Aug-18 09:59N 54°44' E 019°38'511.6
2017-Aug-18 09:30N 54°46' E 019°29'611.6
2017-Aug-18 09:00N 54°48' E 019°19'611.6
2017-Aug-18 08:30N 54°49' E 019°10'611.5
2017-Aug-18 08:00N 54°51' E 019°00'611.4
2017-Aug-18 07:30N 54°53' E 018°51'611.2
2017-Aug-18 07:00N 54°55' E 018°42'510.7
2017-Aug-18 06:30N 54°55' E 018°32'611.0
2017-Aug-18 06:00N 54°55' E 018°23'611.3
2017-Aug-18 05:30N 54°55' E 018°13'611.4
2017-Aug-18 05:00N 54°54' E 018°03'10311.4
2017-Aug-17 19:59N 54°39' E 015°07'611.2
2017-Aug-17 19:29N 54°38' E 014°57'511.2
2017-Aug-17 19:00N 54°37' E 014°48'611.1
2017-Aug-17 18:28N 54°37' E 014°38'711.0
2017-Aug-17 17:49N 54°36' E 014°26'410.6
2017-Aug-17 17:29N 54°36' E 014°20'510.7
2017-Aug-17 17:00N 54°38' E 014°11'510.7
2017-Aug-17 16:30N 54°39' E 014°02'510.8
2017-Aug-17 16:00N 54°40' E 013°53'610.8
2017-Aug-17 15:27N 54°42' E 013°43'510.7
2017-Aug-17 15:00N 54°44' E 013°35'510.3
2017-Aug-17 14:30N 54°45' E 013°27'1310.8
2017-Aug-17 13:17N 54°43' E 013°04'310.7
2017-Aug-17 13:00N 54°43' E 012°59'510.8
2017-Aug-17 12:30N 54°42' E 012°50'1410.8
2017-Aug-17 11:15N 54°36' E 012°29'511.0
2017-Aug-17 10:47N 54°33' E 012°22'311.0
2017-Aug-17 10:31N 54°31' E 012°17'611.1
2017-Aug-17 10:00N 54°26' E 012°13'510.2
2017-Aug-17 09:30N 54°24' E 012°05'1111.0
2017-Aug-17 08:32N 54°23' E 011°47'010.9
2017-Aug-17 08:30N 54°24' E 011°46'510.9
2017-Aug-17 08:00N 54°26' E 011°38'510.9
2017-Aug-17 07:30N 54°29' E 011°30'510.8
2017-Aug-17 07:00N 54°31' E 011°22'510.5
2017-Aug-17 06:30N 54°34' E 011°14'510.7
2017-Aug-17 06:00N 54°35' E 011°05'611.5
2017-Aug-17 05:30N 54°34' E 010°55'611.5
2017-Aug-17 05:00N 54°34' E 010°45'611.2
2017-Aug-17 04:30N 54°33' E 010°36'611.2
2017-Aug-17 04:00N 54°31' E 010°27'610.9
2017-Aug-17 03:29N 54°29' E 010°18'611.0
2017-Aug-17 02:57N 54°24' E 010°12'5 3.5
2017-Aug-17 01:30N 54°22' E 010°04'4 7.1
2017-Aug-17 00:57N 54°21' E 009°58'9 7.2
2017-Aug-16 23:45N 54°20' E 009°43'4 7.0
2017-Aug-16 23:15N 54°17' E 009°39'2 5.7
2017-Aug-16 22:56N 54°16' E 009°37'3 6.3
2017-Aug-16 22:29N 54°13' E 009°35'10 8.4
2017-Aug-16 21:17N 54°08' E 009°20'3 8.3
2017-Aug-16 20:59N 54°06' E 009°20'3 7.0
2017-Aug-16 20:30N 54°02' E 009°18'1 1.5
2017-Aug-16 20:00N 54°02' E 009°18'3 6.8
2017-Aug-16 19:30N 53°59' E 009°16'4 8.4
2017-Aug-16 19:00N 53°55' E 009°12'2 4.7
2017-Aug-16 18:30N 53°54' E 009°09'1 1.6
2017-Aug-16 18:00N 53°53' E 009°08'1 1.3
2017-Aug-16 17:30N 53°53' E 009°07'510.0
2017-Aug-16 17:01N 53°51' E 008°59'713.9
2017-Aug-16 16:30N 53°50' E 008°47'713.7
2017-Aug-16 16:00N 53°56' E 008°40'713.3
2017-Aug-16 15:30N 53°58' E 008°29'713.3
2017-Aug-16 14:59N 53°59' E 008°18'11411.1
2017-Aug-16 04:43N 53°30' E 005°11'210.9
2017-Aug-16 04:30N 53°29' E 005°08'611.0
2017-Aug-16 04:00N 53°27' E 004°59'911.0
2017-Aug-16 03:13N 53°25' E 004°45'2 9.9
2017-Aug-16 03:00N 53°25' E 004°41'810.9
2017-Aug-16 02:18N 53°18' E 004°36'1010.4
2017-Aug-16 01:23N 53°19' E 004°20'1812.0
2017-Aug-15 23:52N 53°19' E 003°49'512.1
2017-Aug-15 23:29N 53°20' E 003°42'7711.1
2017-Aug-15 16:30N 53°20' E 001°32'611.0
2017-Aug-15 16:00N 53°21' E 001°23'711.2
2017-Aug-15 15:22N 53°21' E 001°11'  
2017-Aug-12 12:23N 53°33' E 004°57'10810.1
2017-Aug-12 01:40N 54°01' E 007°55'210.2
2017-Aug-12 01:28N 54°01' E 007°58'18 9.4
2017-Aug-11 23:34N 53°59' E 008°28'1 7.7
2017-Aug-11 23:30N 53°59' E 008°29'4 8.2
2017-Aug-11 22:59N 53°58' E 008°36'4 9.2
2017-Aug-11 22:30N 53°55' E 008°41'611.3
2017-Aug-11 22:00N 53°51' E 008°48'613.0
2017-Aug-11 21:31N 53°51' E 008°59'611.8
2017-Aug-11 21:00N 53°53' E 009°08'0 0.9
2017-Aug-11 20:30N 53°54' E 009°09'2 4.1
2017-Aug-11 20:01N 53°55' E 009°11'4 8.5
2017-Aug-11 19:31N 53°58' E 009°16'4 8.4
2017-Aug-11 19:00N 54°02' E 009°18'52 6.5
2017-Aug-11 11:06N 54°33' E 010°29'210.7
2017-Aug-11 10:57N 54°34' E 010°32'510.5
2017-Aug-11 10:30N 54°34' E 010°40'510.9
2017-Aug-11 10:00N 54°35' E 010°49'611.3
2017-Aug-11 09:30N 54°36' E 010°59'611.2
2017-Aug-11 09:00N 54°36' E 011°08'611.4
2017-Aug-11 08:30N 54°34' E 011°18'  

Dump ship's entire track history